sensor_id;sensor_type;location;lat;lon;timestamp;P1;durP1;ratioP1;P2;durP2;ratioP2
64842;SDS011;51310;52.198;5.422;2023-05-28T00:00:05;21.20;;;8.88;;
64842;SDS011;51310;52.198;5.422;2023-05-28T00:02:32;28.52;;;9.88;;
64842;SDS011;51310;52.198;5.422;2023-05-28T00:04:58;27.63;;;9.60;;
64842;SDS011;51310;52.198;5.422;2023-05-28T00:07:25;30.35;;;9.13;;
64842;SDS011;51310;52.198;5.422;2023-05-28T00:09:54;34.93;;;11.73;;
64842;SDS011;51310;52.198;5.422;2023-05-28T00:12:20;32.37;;;9.93;;
64842;SDS011;51310;52.198;5.422;2023-05-28T00:14:46;28.23;;;9.45;;
64842;SDS011;51310;52.198;5.422;2023-05-28T00:17:13;27.70;;;11.00;;
64842;SDS011;51310;52.198;5.422;2023-05-28T00:19:40;27.05;;;9.60;;
64842;SDS011;51310;52.198;5.422;2023-05-28T00:22:06;27.73;;;9.88;;
64842;SDS011;51310;52.198;5.422;2023-05-28T00:24:32;28.40;;;9.17;;
64842;SDS011;51310;52.198;5.422;2023-05-28T00:26:58;29.83;;;9.18;;
64842;SDS011;51310;52.198;5.422;2023-05-28T00:29:24;27.98;;;9.35;;
64842;SDS011;51310;52.198;5.422;2023-05-28T00:31:51;27.10;;;10.18;;
64842;SDS011;51310;52.198;5.422;2023-05-28T00:34:20;30.00;;;9.48;;
64842;SDS011;51310;52.198;5.422;2023-05-28T00:36:47;32.28;;;10.20;;
64842;SDS011;51310;52.198;5.422;2023-05-28T00:39:16;29.33;;;9.87;;
64842;SDS011;51310;52.198;5.422;2023-05-28T00:41:43;32.25;;;9.98;;
64842;SDS011;51310;52.198;5.422;2023-05-28T00:44:09;32.67;;;10.13;;
64842;SDS011;51310;52.198;5.422;2023-05-28T00:46:35;34.55;;;10.48;;
64842;SDS011;51310;52.198;5.422;2023-05-28T00:49:04;25.52;;;9.52;;
64842;SDS011;51310;52.198;5.422;2023-05-28T00:51:30;27.60;;;10.32;;
64842;SDS011;51310;52.198;5.422;2023-05-28T00:53:58;23.80;;;8.73;;
64842;SDS011;51310;52.198;5.422;2023-05-28T00:56:24;29.42;;;9.27;;
64842;SDS011;51310;52.198;5.422;2023-05-28T00:58:51;26.40;;;9.77;;
64842;SDS011;51310;52.198;5.422;2023-05-28T01:01:18;31.15;;;10.07;;
64842;SDS011;51310;52.198;5.422;2023-05-28T01:03:45;26.23;;;9.60;;
64842;SDS011;51310;52.198;5.422;2023-05-28T01:06:12;25.50;;;9.43;;
64842;SDS011;51310;52.198;5.422;2023-05-28T01:08:39;33.22;;;11.65;;
64842;SDS011;51310;52.198;5.422;2023-05-28T01:11:07;23.98;;;9.63;;
64842;SDS011;51310;52.198;5.422;2023-05-28T01:13:38;23.98;;;9.00;;
64842;SDS011;51310;52.198;5.422;2023-05-28T01:16:06;30.33;;;9.70;;
64842;SDS011;51310;52.198;5.422;2023-05-28T01:18:32;32.43;;;9.57;;
64842;SDS011;51310;52.198;5.422;2023-05-28T01:20:59;23.60;;;10.48;;
64842;SDS011;51310;52.198;5.422;2023-05-28T01:23:27;25.20;;;9.20;;
64842;SDS011;51310;52.198;5.422;2023-05-28T01:25:54;26.40;;;10.55;;
64842;SDS011;51310;52.198;5.422;2023-05-28T01:28:21;24.10;;;9.30;;
64842;SDS011;51310;52.198;5.422;2023-05-28T01:30:47;29.50;;;10.82;;
64842;SDS011;51310;52.198;5.422;2023-05-28T01:33:13;31.25;;;10.70;;
64842;SDS011;51310;52.198;5.422;2023-05-28T01:35:40;25.65;;;8.98;;
64842;SDS011;51310;52.198;5.422;2023-05-28T01:38:09;29.67;;;10.25;;
64842;SDS011;51310;52.198;5.422;2023-05-28T01:40:40;28.77;;;10.40;;
64842;SDS011;51310;52.198;5.422;2023-05-28T01:43:10;23.10;;;9.47;;
64842;SDS011;51310;52.198;5.422;2023-05-28T01:45:36;28.10;;;10.15;;
64842;SDS011;51310;52.198;5.422;2023-05-28T01:48:03;28.77;;;10.48;;
64842;SDS011;51310;52.198;5.422;2023-05-28T01:50:30;38.45;;;10.40;;
64842;SDS011;51310;52.198;5.422;2023-05-28T01:52:57;28.38;;;10.73;;
64842;SDS011;51310;52.198;5.422;2023-05-28T01:55:24;29.77;;;10.55;;
64842;SDS011;51310;52.198;5.422;2023-05-28T01:57:50;28.17;;;9.73;;
64842;SDS011;51310;52.198;5.422;2023-05-28T02:00:16;29.73;;;10.90;;
64842;SDS011;51310;52.198;5.422;2023-05-28T02:02:42;27.60;;;11.60;;
64842;SDS011;51310;52.198;5.422;2023-05-28T02:05:08;30.40;;;10.47;;
64842;SDS011;51310;52.198;5.422;2023-05-28T02:07:34;32.63;;;11.63;;
64842;SDS011;51310;52.198;5.422;2023-05-28T02:10:00;28.42;;;11.45;;
64842;SDS011;51310;52.198;5.422;2023-05-28T02:12:25;33.13;;;10.98;;
64842;SDS011;51310;52.198;5.422;2023-05-28T02:14:51;37.17;;;11.68;;
64842;SDS011;51310;52.198;5.422;2023-05-28T02:17:17;28.25;;;11.15;;
64842;SDS011;51310;52.198;5.422;2023-05-28T02:19:44;28.67;;;11.60;;
64842;SDS011;51310;52.198;5.422;2023-05-28T02:22:09;26.33;;;10.20;;
64842;SDS011;51310;52.198;5.422;2023-05-28T02:24:39;27.65;;;10.40;;
64842;SDS011;51310;52.198;5.422;2023-05-28T02:27:06;31.88;;;12.02;;
64842;SDS011;51310;52.198;5.422;2023-05-28T02:29:32;28.92;;;9.73;;
64842;SDS011;51310;52.198;5.422;2023-05-28T02:31:59;35.28;;;11.38;;
64842;SDS011;51310;52.198;5.422;2023-05-28T02:34:27;27.80;;;10.50;;
64842;SDS011;51310;52.198;5.422;2023-05-28T02:36:56;34.97;;;11.15;;
64842;SDS011;51310;52.198;5.422;2023-05-28T02:39:22;29.17;;;11.27;;
64842;SDS011;51310;52.198;5.422;2023-05-28T02:41:49;29.33;;;10.30;;
64842;SDS011;51310;52.198;5.422;2023-05-28T02:44:14;29.87;;;10.97;;
64842;SDS011;51310;52.198;5.422;2023-05-28T02:46:40;33.10;;;12.00;;
64842;SDS011;51310;52.198;5.422;2023-05-28T02:49:06;32.50;;;11.70;;
64842;SDS011;51310;52.198;5.422;2023-05-28T02:51:32;32.58;;;12.68;;
64842;SDS011;51310;52.198;5.422;2023-05-28T02:53:58;28.42;;;11.80;;
64842;SDS011;51310;52.198;5.422;2023-05-28T02:56:23;27.90;;;11.67;;
64842;SDS011;51310;52.198;5.422;2023-05-28T02:58:50;25.73;;;11.13;;
64842;SDS011;51310;52.198;5.422;2023-05-28T03:01:16;29.95;;;11.32;;
64842;SDS011;51310;52.198;5.422;2023-05-28T03:03:42;34.90;;;12.07;;
64842;SDS011;51310;52.198;5.422;2023-05-28T03:06:07;33.07;;;12.33;;
64842;SDS011;51310;52.198;5.422;2023-05-28T03:08:33;27.10;;;11.40;;
64842;SDS011;51310;52.198;5.422;2023-05-28T03:10:59;25.47;;;10.83;;
64842;SDS011;51310;52.198;5.422;2023-05-28T03:13:25;29.97;;;11.77;;
64842;SDS011;51310;52.198;5.422;2023-05-28T03:15:50;25.30;;;10.47;;
64842;SDS011;51310;52.198;5.422;2023-05-28T03:18:16;30.42;;;12.15;;
64842;SDS011;51310;52.198;5.422;2023-05-28T03:20:42;35.97;;;11.25;;
64842;SDS011;51310;52.198;5.422;2023-05-28T03:23:07;25.42;;;11.30;;
64842;SDS011;51310;52.198;5.422;2023-05-28T03:25:33;24.38;;;11.50;;
64842;SDS011;51310;52.198;5.422;2023-05-28T03:27:59;29.75;;;11.02;;
64842;SDS011;51310;52.198;5.422;2023-05-28T03:30:25;25.77;;;11.15;;
64842;SDS011;51310;52.198;5.422;2023-05-28T03:32:50;32.72;;;11.13;;
64842;SDS011;51310;52.198;5.422;2023-05-28T03:35:16;28.85;;;10.70;;
64842;SDS011;51310;52.198;5.422;2023-05-28T03:37:42;28.58;;;10.80;;
64842;SDS011;51310;52.198;5.422;2023-05-28T03:40:08;33.38;;;11.35;;
64842;SDS011;51310;52.198;5.422;2023-05-28T03:42:35;29.20;;;12.18;;
64842;SDS011;51310;52.198;5.422;2023-05-28T03:45:02;28.38;;;11.60;;
64842;SDS011;51310;52.198;5.422;2023-05-28T03:47:30;31.55;;;12.13;;
64842;SDS011;51310;52.198;5.422;2023-05-28T03:49:57;29.13;;;11.30;;
64842;SDS011;51310;52.198;5.422;2023-05-28T03:52:24;30.02;;;12.15;;
64842;SDS011;51310;52.198;5.422;2023-05-28T03:54:50;32.75;;;11.35;;
64842;SDS011;51310;52.198;5.422;2023-05-28T03:57:16;28.17;;;11.63;;
64842;SDS011;51310;52.198;5.422;2023-05-28T03:59:42;31.92;;;11.68;;
64842;SDS011;51310;52.198;5.422;2023-05-28T04:02:08;28.13;;;11.30;;
64842;SDS011;51310;52.198;5.422;2023-05-28T04:04:33;30.17;;;11.43;;
64842;SDS011;51310;52.198;5.422;2023-05-28T04:06:59;25.13;;;10.70;;
64842;SDS011;51310;52.198;5.422;2023-05-28T04:09:25;29.02;;;11.55;;
64842;SDS011;51310;52.198;5.422;2023-05-28T04:11:52;31.38;;;11.52;;
64842;SDS011;51310;52.198;5.422;2023-05-28T04:14:18;29.60;;;10.93;;
64842;SDS011;51310;52.198;5.422;2023-05-28T04:16:44;31.98;;;10.57;;
64842;SDS011;51310;52.198;5.422;2023-05-28T04:19:09;30.48;;;11.40;;
64842;SDS011;51310;52.198;5.422;2023-05-28T04:21:35;28.10;;;11.18;;
64842;SDS011;51310;52.198;5.422;2023-05-28T04:24:01;29.13;;;10.73;;
64842;SDS011;51310;52.198;5.422;2023-05-28T04:26:28;28.85;;;10.85;;
64842;SDS011;51310;52.198;5.422;2023-05-28T04:28:54;30.70;;;12.13;;
64842;SDS011;51310;52.198;5.422;2023-05-28T04:31:20;33.08;;;11.02;;
64842;SDS011;51310;52.198;5.422;2023-05-28T04:33:46;26.33;;;11.88;;
64842;SDS011;51310;52.198;5.422;2023-05-28T04:36:12;26.92;;;10.95;;
64842;SDS011;51310;52.198;5.422;2023-05-28T04:38:38;32.17;;;10.82;;
64842;SDS011;51310;52.198;5.422;2023-05-28T04:41:06;22.08;;;10.50;;
64842;SDS011;51310;52.198;5.422;2023-05-28T04:43:31;25.80;;;10.47;;
64842;SDS011;51310;52.198;5.422;2023-05-28T04:45:58;30.85;;;11.77;;
64842;SDS011;51310;52.198;5.422;2023-05-28T04:48:25;27.93;;;11.43;;
64842;SDS011;51310;52.198;5.422;2023-05-28T04:50:51;28.03;;;10.13;;
64842;SDS011;51310;52.198;5.422;2023-05-28T04:53:18;26.90;;;11.07;;
64842;SDS011;51310;52.198;5.422;2023-05-28T04:55:44;20.77;;;9.27;;
64842;SDS011;51310;52.198;5.422;2023-05-28T04:58:10;20.63;;;9.50;;
64842;SDS011;51310;52.198;5.422;2023-05-28T05:00:36;23.73;;;9.18;;
64842;SDS011;51310;52.198;5.422;2023-05-28T05:03:02;22.43;;;9.43;;
64842;SDS011;51310;52.198;5.422;2023-05-28T05:05:28;22.35;;;9.60;;
64842;SDS011;51310;52.198;5.422;2023-05-28T05:07:54;25.63;;;8.70;;
64842;SDS011;51310;52.198;5.422;2023-05-28T05:10:20;25.65;;;9.52;;
64842;SDS011;51310;52.198;5.422;2023-05-28T05:12:45;22.30;;;9.60;;
64842;SDS011;51310;52.198;5.422;2023-05-28T05:15:11;22.80;;;8.67;;
64842;SDS011;51310;52.198;5.422;2023-05-28T05:17:37;24.23;;;8.73;;
64842;SDS011;51310;52.198;5.422;2023-05-28T05:20:03;25.80;;;8.93;;
64842;SDS011;51310;52.198;5.422;2023-05-28T05:22:30;22.08;;;9.75;;
64842;SDS011;51310;52.198;5.422;2023-05-28T05:24:56;21.90;;;9.30;;
64842;SDS011;51310;52.198;5.422;2023-05-28T05:27:22;24.27;;;9.55;;
64842;SDS011;51310;52.198;5.422;2023-05-28T05:29:48;25.90;;;10.40;;
64842;SDS011;51310;52.198;5.422;2023-05-28T05:32:13;23.35;;;8.20;;
64842;SDS011;51310;52.198;5.422;2023-05-28T05:34:39;21.25;;;9.13;;
64842;SDS011;51310;52.198;5.422;2023-05-28T05:37:05;23.47;;;8.90;;
64842;SDS011;51310;52.198;5.422;2023-05-28T05:39:31;23.17;;;8.37;;
64842;SDS011;51310;52.198;5.422;2023-05-28T05:41:57;23.33;;;8.33;;
64842;SDS011;51310;52.198;5.422;2023-05-28T05:44:23;22.13;;;8.50;;
64842;SDS011;51310;52.198;5.422;2023-05-28T05:46:48;24.30;;;8.93;;
64842;SDS011;51310;52.198;5.422;2023-05-28T05:49:14;20.38;;;8.27;;
64842;SDS011;51310;52.198;5.422;2023-05-28T05:51:40;24.98;;;9.68;;
64842;SDS011;51310;52.198;5.422;2023-05-28T05:54:05;20.70;;;7.95;;
64842;SDS011;51310;52.198;5.422;2023-05-28T05:56:31;20.63;;;7.78;;
64842;SDS011;51310;52.198;5.422;2023-05-28T05:58:58;18.58;;;8.52;;
64842;SDS011;51310;52.198;5.422;2023-05-28T06:01:24;21.95;;;9.27;;
64842;SDS011;51310;52.198;5.422;2023-05-28T06:03:50;25.77;;;8.30;;
64842;SDS011;51310;52.198;5.422;2023-05-28T06:06:16;23.17;;;8.80;;
64842;SDS011;51310;52.198;5.422;2023-05-28T06:08:42;21.80;;;8.65;;
64842;SDS011;51310;52.198;5.422;2023-05-28T06:11:08;28.60;;;9.10;;
64842;SDS011;51310;52.198;5.422;2023-05-28T06:13:34;23.17;;;8.48;;
64842;SDS011;51310;52.198;5.422;2023-05-28T06:16:01;27.58;;;9.15;;
64842;SDS011;51310;52.198;5.422;2023-05-28T06:18:29;23.00;;;8.25;;
64842;SDS011;51310;52.198;5.422;2023-05-28T06:20:55;18.85;;;7.47;;
64842;SDS011;51310;52.198;5.422;2023-05-28T06:23:22;26.13;;;9.15;;
64842;SDS011;51310;52.198;5.422;2023-05-28T06:25:47;21.30;;;7.77;;
64842;SDS011;51310;52.198;5.422;2023-05-28T06:28:13;20.08;;;8.55;;
64842;SDS011;51310;52.198;5.422;2023-05-28T06:30:40;23.65;;;8.50;;
64842;SDS011;51310;52.198;5.422;2023-05-28T06:33:06;23.95;;;8.38;;
64842;SDS011;51310;52.198;5.422;2023-05-28T06:35:32;21.85;;;9.25;;
64842;SDS011;51310;52.198;5.422;2023-05-28T06:37:59;20.00;;;8.15;;
64842;SDS011;51310;52.198;5.422;2023-05-28T06:40:25;19.35;;;8.10;;
64842;SDS011;51310;52.198;5.422;2023-05-28T06:42:50;20.85;;;7.55;;
64842;SDS011;51310;52.198;5.422;2023-05-28T06:45:16;20.15;;;7.80;;
64842;SDS011;51310;52.198;5.422;2023-05-28T06:47:43;20.67;;;8.93;;
64842;SDS011;51310;52.198;5.422;2023-05-28T06:50:10;24.23;;;10.57;;
64842;SDS011;51310;52.198;5.422;2023-05-28T06:52:36;24.58;;;8.30;;
64842;SDS011;51310;52.198;5.422;2023-05-28T06:55:02;22.02;;;8.02;;
64842;SDS011;51310;52.198;5.422;2023-05-28T06:57:30;21.42;;;7.45;;
64842;SDS011;51310;52.198;5.422;2023-05-28T06:59:57;22.50;;;8.55;;
64842;SDS011;51310;52.198;5.422;2023-05-28T07:02:23;22.10;;;8.95;;
64842;SDS011;51310;52.198;5.422;2023-05-28T07:04:50;24.08;;;8.30;;
64842;SDS011;51310;52.198;5.422;2023-05-28T07:07:16;20.07;;;8.97;;
64842;SDS011;51310;52.198;5.422;2023-05-28T07:09:42;23.83;;;7.77;;
64842;SDS011;51310;52.198;5.422;2023-05-28T07:12:11;20.33;;;8.27;;
64842;SDS011;51310;52.198;5.422;2023-05-28T07:14:37;25.02;;;8.60;;
64842;SDS011;51310;52.198;5.422;2023-05-28T07:17:03;18.50;;;8.25;;
64842;SDS011;51310;52.198;5.422;2023-05-28T07:19:29;20.70;;;8.30;;
64842;SDS011;51310;52.198;5.422;2023-05-28T07:21:56;23.48;;;7.63;;
64842;SDS011;51310;52.198;5.422;2023-05-28T07:24:22;21.88;;;9.23;;
64842;SDS011;51310;52.198;5.422;2023-05-28T07:26:47;24.20;;;8.13;;
64842;SDS011;51310;52.198;5.422;2023-05-28T07:29:13;28.33;;;8.00;;
64842;SDS011;51310;52.198;5.422;2023-05-28T07:31:41;21.05;;;8.63;;
64842;SDS011;51310;52.198;5.422;2023-05-28T07:34:07;21.30;;;9.23;;
64842;SDS011;51310;52.198;5.422;2023-05-28T07:36:33;24.97;;;8.10;;
64842;SDS011;51310;52.198;5.422;2023-05-28T07:38:58;19.37;;;7.60;;
64842;SDS011;51310;52.198;5.422;2023-05-28T07:41:24;20.00;;;8.77;;
64842;SDS011;51310;52.198;5.422;2023-05-28T07:43:50;20.77;;;7.30;;
64842;SDS011;51310;52.198;5.422;2023-05-28T07:46:16;21.80;;;7.90;;
64842;SDS011;51310;52.198;5.422;2023-05-28T07:48:46;20.35;;;8.45;;
64842;SDS011;51310;52.198;5.422;2023-05-28T07:51:13;23.63;;;7.65;;
64842;SDS011;51310;52.198;5.422;2023-05-28T07:53:39;22.50;;;7.55;;
64842;SDS011;51310;52.198;5.422;2023-05-28T07:56:05;18.73;;;7.70;;
64842;SDS011;51310;52.198;5.422;2023-05-28T07:58:31;17.23;;;7.15;;
64842;SDS011;51310;52.198;5.422;2023-05-28T08:00:57;21.37;;;8.00;;
64842;SDS011;51310;52.198;5.422;2023-05-28T08:03:23;19.67;;;7.97;;
64842;SDS011;51310;52.198;5.422;2023-05-28T08:05:52;16.67;;;6.68;;
64842;SDS011;51310;52.198;5.422;2023-05-28T08:08:19;23.13;;;7.53;;
64842;SDS011;51310;52.198;5.422;2023-05-28T08:10:44;20.40;;;7.25;;
64842;SDS011;51310;52.198;5.422;2023-05-28T08:13:11;17.70;;;7.38;;
64842;SDS011;51310;52.198;5.422;2023-05-28T08:15:36;21.20;;;7.57;;
64842;SDS011;51310;52.198;5.422;2023-05-28T08:18:02;18.42;;;6.90;;
64842;SDS011;51310;52.198;5.422;2023-05-28T08:20:28;24.17;;;7.30;;
64842;SDS011;51310;52.198;5.422;2023-05-28T08:22:54;20.88;;;6.70;;
64842;SDS011;51310;52.198;5.422;2023-05-28T08:25:20;23.87;;;6.97;;
64842;SDS011;51310;52.198;5.422;2023-05-28T08:27:46;17.53;;;6.83;;
64842;SDS011;51310;52.198;5.422;2023-05-28T08:30:13;19.92;;;7.25;;
64842;SDS011;51310;52.198;5.422;2023-05-28T08:32:38;19.75;;;8.55;;
64842;SDS011;51310;52.198;5.422;2023-05-28T08:35:04;17.80;;;6.72;;
64842;SDS011;51310;52.198;5.422;2023-05-28T08:37:31;22.15;;;7.53;;
64842;SDS011;51310;52.198;5.422;2023-05-28T08:39:57;23.43;;;7.00;;
64842;SDS011;51310;52.198;5.422;2023-05-28T08:42:23;21.75;;;6.60;;
64842;SDS011;51310;52.198;5.422;2023-05-28T08:44:48;21.40;;;7.43;;
64842;SDS011;51310;52.198;5.422;2023-05-28T08:47:14;21.27;;;6.95;;
64842;SDS011;51310;52.198;5.422;2023-05-28T08:49:42;22.65;;;7.45;;
64842;SDS011;51310;52.198;5.422;2023-05-28T08:52:15;23.92;;;6.88;;
64842;SDS011;51310;52.198;5.422;2023-05-28T08:54:44;19.20;;;7.33;;
64842;SDS011;51310;52.198;5.422;2023-05-28T08:57:11;15.07;;;6.20;;
64842;SDS011;51310;52.198;5.422;2023-05-28T08:59:38;18.17;;;7.05;;
64842;SDS011;51310;52.198;5.422;2023-05-28T09:02:04;22.50;;;7.70;;
64842;SDS011;51310;52.198;5.422;2023-05-28T09:04:31;19.15;;;7.50;;
64842;SDS011;51310;52.198;5.422;2023-05-28T09:06:56;19.27;;;7.03;;
64842;SDS011;51310;52.198;5.422;2023-05-28T09:09:23;16.00;;;6.60;;
64842;SDS011;51310;52.198;5.422;2023-05-28T09:11:49;20.10;;;7.43;;
64842;SDS011;51310;52.198;5.422;2023-05-28T09:14:16;21.27;;;9.17;;
64842;SDS011;51310;52.198;5.422;2023-05-28T09:16:44;18.25;;;6.68;;
64842;SDS011;51310;52.198;5.422;2023-05-28T09:19:11;19.60;;;7.20;;
64842;SDS011;51310;52.198;5.422;2023-05-28T09:21:51;15.68;;;6.43;;
64842;SDS011;51310;52.198;5.422;2023-05-28T09:24:18;15.93;;;6.70;;
64842;SDS011;51310;52.198;5.422;2023-05-28T09:26:44;20.60;;;6.53;;
64842;SDS011;51310;52.198;5.422;2023-05-28T09:29:12;15.60;;;6.00;;
64842;SDS011;51310;52.198;5.422;2023-05-28T09:31:38;15.57;;;6.07;;
64842;SDS011;51310;52.198;5.422;2023-05-28T09:34:04;21.23;;;6.10;;
64842;SDS011;51310;52.198;5.422;2023-05-28T09:36:30;18.77;;;6.13;;
64842;SDS011;51310;52.198;5.422;2023-05-28T09:38:56;15.98;;;5.53;;
64842;SDS011;51310;52.198;5.422;2023-05-28T09:41:24;21.98;;;6.90;;
64842;SDS011;51310;52.198;5.422;2023-05-28T09:43:55;15.97;;;6.10;;
64842;SDS011;51310;52.198;5.422;2023-05-28T09:46:27;18.00;;;6.13;;
64842;SDS011;51310;52.198;5.422;2023-05-28T09:48:54;16.52;;;5.20;;
64842;SDS011;51310;52.198;5.422;2023-05-28T09:51:20;14.15;;;5.10;;
64842;SDS011;51310;52.198;5.422;2023-05-28T09:53:53;16.40;;;5.07;;
64842;SDS011;51310;52.198;5.422;2023-05-28T09:56:28;16.80;;;5.45;;
64842;SDS011;51310;52.198;5.422;2023-05-28T09:58:57;17.20;;;5.70;;
64842;SDS011;51310;52.198;5.422;2023-05-28T10:01:25;17.70;;;6.32;;
64842;SDS011;51310;52.198;5.422;2023-05-28T10:04:07;23.17;;;6.57;;
64842;SDS011;51310;52.198;5.422;2023-05-28T10:06:34;16.73;;;5.78;;
64842;SDS011;51310;52.198;5.422;2023-05-28T10:09:03;12.35;;;5.05;;
64842;SDS011;51310;52.198;5.422;2023-05-28T10:11:30;15.95;;;5.15;;
64842;SDS011;51310;52.198;5.422;2023-05-28T10:14:19;19.80;;;5.32;;
64842;SDS011;51310;52.198;5.422;2023-05-28T10:16:45;14.77;;;5.03;;
64842;SDS011;51310;52.198;5.422;2023-05-28T10:19:11;16.30;;;5.27;;
64842;SDS011;51310;52.198;5.422;2023-05-28T10:21:38;12.23;;;4.50;;
64842;SDS011;51310;52.198;5.422;2023-05-28T10:24:04;18.83;;;4.95;;
64842;SDS011;51310;52.198;5.422;2023-05-28T10:26:30;11.95;;;5.10;;
64842;SDS011;51310;52.198;5.422;2023-05-28T10:28:56;18.00;;;4.90;;
64842;SDS011;51310;52.198;5.422;2023-05-28T10:31:22;19.25;;;4.80;;
64842;SDS011;51310;52.198;5.422;2023-05-28T10:33:49;16.83;;;4.68;;
64842;SDS011;51310;52.198;5.422;2023-05-28T10:36:15;11.93;;;4.27;;
64842;SDS011;51310;52.198;5.422;2023-05-28T10:38:43;11.48;;;4.05;;
64842;SDS011;51310;52.198;5.422;2023-05-28T10:41:21;12.55;;;3.80;;
64842;SDS011;51310;52.198;5.422;2023-05-28T10:43:47;13.07;;;4.47;;
64842;SDS011;51310;52.198;5.422;2023-05-28T10:46:16;16.05;;;5.60;;
64842;SDS011;51310;52.198;5.422;2023-05-28T10:49:04;15.55;;;4.60;;
64842;SDS011;51310;52.198;5.422;2023-05-28T10:57:17;13.27;;;4.25;;
64842;SDS011;51310;52.198;5.422;2023-05-28T10:59:52;12.63;;;4.80;;
64842;SDS011;51310;52.198;5.422;2023-05-28T11:02:27;12.85;;;5.03;;
64842;SDS011;51310;52.198;5.422;2023-05-28T11:04:58;14.07;;;5.00;;
64842;SDS011;51310;52.198;5.422;2023-05-28T11:07:30;14.85;;;5.45;;
64842;SDS011;51310;52.198;5.422;2023-05-28T11:10:02;13.55;;;4.68;;
64842;SDS011;51310;52.198;5.422;2023-05-28T11:12:31;17.73;;;5.73;;
64842;SDS011;51310;52.198;5.422;2023-05-28T11:15:01;16.85;;;5.43;;
64842;SDS011;51310;52.198;5.422;2023-05-28T11:17:27;14.82;;;5.75;;
64842;SDS011;51310;52.198;5.422;2023-05-28T11:19:52;16.43;;;4.47;;
64842;SDS011;51310;52.198;5.422;2023-05-28T11:22:19;18.98;;;5.30;;
64842;SDS011;51310;52.198;5.422;2023-05-28T11:25:05;17.08;;;4.85;;
64842;SDS011;51310;52.198;5.422;2023-05-28T11:27:34;13.90;;;4.30;;
64842;SDS011;51310;52.198;5.422;2023-05-28T11:30:03;15.05;;;4.85;;
64842;SDS011;51310;52.198;5.422;2023-05-28T11:32:36;12.10;;;4.63;;
64842;SDS011;51310;52.198;5.422;2023-05-28T11:35:03;12.43;;;4.60;;
64842;SDS011;51310;52.198;5.422;2023-05-28T11:37:31;17.42;;;4.78;;
64842;SDS011;51310;52.198;5.422;2023-05-28T11:40:00;13.77;;;4.60;;
64842;SDS011;51310;52.198;5.422;2023-05-28T11:42:30;13.18;;;5.00;;
64842;SDS011;51310;52.198;5.422;2023-05-28T11:44:57;13.20;;;4.68;;
64842;SDS011;51310;52.198;5.422;2023-05-28T11:47:23;14.23;;;4.75;;
64842;SDS011;51310;52.198;5.422;2023-05-28T11:49:51;13.18;;;4.80;;
64842;SDS011;51310;52.198;5.422;2023-05-28T11:52:18;12.93;;;4.45;;
64842;SDS011;51310;52.198;5.422;2023-05-28T11:54:47;17.92;;;5.70;;
64842;SDS011;51310;52.198;5.422;2023-05-28T11:57:30;14.73;;;5.05;;
64842;SDS011;51310;52.198;5.422;2023-05-28T12:00:07;16.88;;;5.40;;
64842;SDS011;51310;52.198;5.422;2023-05-28T12:02:44;18.15;;;5.00;;
64842;SDS011;51310;52.198;5.422;2023-05-28T12:05:13;13.47;;;4.43;;
64842;SDS011;51310;52.198;5.422;2023-05-28T12:07:47;13.10;;;4.88;;
64842;SDS011;51310;52.198;5.422;2023-05-28T12:10:15;14.80;;;5.60;;
64842;SDS011;51310;52.198;5.422;2023-05-28T12:12:47;14.27;;;5.53;;
64842;SDS011;51310;52.198;5.422;2023-05-28T12:15:21;12.70;;;5.47;;
64842;SDS011;51310;52.198;5.422;2023-05-28T12:18:06;13.60;;;4.85;;
64842;SDS011;51310;52.198;5.422;2023-05-28T12:20:33;16.08;;;5.30;;
64842;SDS011;51310;52.198;5.422;2023-05-28T12:23:05;14.15;;;4.80;;
64842;SDS011;51310;52.198;5.422;2023-05-28T12:28:08;15.07;;;5.50;;
64842;SDS011;51310;52.198;5.422;2023-05-28T12:30:38;19.77;;;5.57;;
64842;SDS011;51310;52.198;5.422;2023-05-28T12:33:05;13.82;;;5.30;;
64842;SDS011;51310;52.198;5.422;2023-05-28T12:35:31;15.27;;;5.73;;
64842;SDS011;51310;52.198;5.422;2023-05-28T12:37:57;15.53;;;5.17;;
64842;SDS011;51310;52.198;5.422;2023-05-28T12:40:22;16.53;;;5.80;;
64842;SDS011;51310;52.198;5.422;2023-05-28T12:42:48;13.27;;;4.93;;
64842;SDS011;51310;52.198;5.422;2023-05-28T12:45:14;12.32;;;5.47;;
64842;SDS011;51310;52.198;5.422;2023-05-28T12:47:40;14.18;;;5.40;;
64842;SDS011;51310;52.198;5.422;2023-05-28T12:50:06;14.77;;;5.32;;
64842;SDS011;51310;52.198;5.422;2023-05-28T12:52:32;13.20;;;4.72;;
64842;SDS011;51310;52.198;5.422;2023-05-28T12:54:59;15.88;;;5.40;;
64842;SDS011;51310;52.198;5.422;2023-05-28T12:57:26;14.38;;;5.95;;
64842;SDS011;51310;52.198;5.422;2023-05-28T12:59:52;14.00;;;5.50;;
64842;SDS011;51310;52.198;5.422;2023-05-28T13:02:18;16.90;;;6.18;;
64842;SDS011;51310;52.198;5.422;2023-05-28T13:04:43;13.47;;;5.50;;
64842;SDS011;51310;52.198;5.422;2023-05-28T13:07:09;14.83;;;5.30;;
64842;SDS011;51310;52.198;5.422;2023-05-28T13:09:35;15.98;;;5.38;;
64842;SDS011;51310;52.198;5.422;2023-05-28T13:12:01;10.85;;;4.78;;
64842;SDS011;51310;52.198;5.422;2023-05-28T13:14:28;13.33;;;5.53;;
64842;SDS011;51310;52.198;5.422;2023-05-28T13:16:55;13.07;;;5.32;;
64842;SDS011;51310;52.198;5.422;2023-05-28T13:19:22;15.93;;;5.47;;
64842;SDS011;51310;52.198;5.422;2023-05-28T13:21:48;16.05;;;5.82;;
64842;SDS011;51310;52.198;5.422;2023-05-28T13:24:14;11.43;;;5.07;;
64842;SDS011;51310;52.198;5.422;2023-05-28T13:26:40;14.27;;;5.50;;
64842;SDS011;51310;52.198;5.422;2023-05-28T13:29:06;12.75;;;4.85;;
64842;SDS011;51310;52.198;5.422;2023-05-28T13:31:32;15.48;;;6.07;;
64842;SDS011;51310;52.198;5.422;2023-05-28T13:33:58;15.50;;;5.38;;
64842;SDS011;51310;52.198;5.422;2023-05-28T13:36:24;11.27;;;5.28;;
64842;SDS011;51310;52.198;5.422;2023-05-28T13:38:51;14.93;;;4.57;;
64842;SDS011;51310;52.198;5.422;2023-05-28T13:41:18;13.93;;;5.10;;
64842;SDS011;51310;52.198;5.422;2023-05-28T13:43:44;13.65;;;4.53;;
64842;SDS011;51310;52.198;5.422;2023-05-28T13:46:09;12.13;;;4.63;;
64842;SDS011;51310;52.198;5.422;2023-05-28T13:48:35;11.97;;;6.07;;
64842;SDS011;51310;52.198;5.422;2023-05-28T13:51:01;10.65;;;4.95;;
64842;SDS011;51310;52.198;5.422;2023-05-28T13:53:28;13.23;;;4.88;;
64842;SDS011;51310;52.198;5.422;2023-05-28T13:55:54;11.95;;;4.55;;
64842;SDS011;51310;52.198;5.422;2023-05-28T13:58:20;10.60;;;4.22;;
64842;SDS011;51310;52.198;5.422;2023-05-28T14:00:47;19.70;;;5.68;;
64842;SDS011;51310;52.198;5.422;2023-05-28T14:03:13;15.63;;;7.38;;
64842;SDS011;51310;52.198;5.422;2023-05-28T14:05:39;12.38;;;4.95;;
64842;SDS011;51310;52.198;5.422;2023-05-28T14:08:05;13.95;;;5.47;;
64842;SDS011;51310;52.198;5.422;2023-05-28T14:10:32;9.75;;;4.70;;
64842;SDS011;51310;52.198;5.422;2023-05-28T14:12:58;7.60;;;4.32;;
64842;SDS011;51310;52.198;5.422;2023-05-28T14:15:23;9.73;;;4.22;;
64842;SDS011;51310;52.198;5.422;2023-05-28T14:17:50;11.63;;;4.82;;
64842;SDS011;51310;52.198;5.422;2023-05-28T14:20:16;10.40;;;4.20;;
64842;SDS011;51310;52.198;5.422;2023-05-28T14:22:42;13.07;;;5.22;;
64842;SDS011;51310;52.198;5.422;2023-05-28T14:25:09;8.75;;;3.83;;
64842;SDS011;51310;52.198;5.422;2023-05-28T14:27:37;8.93;;;4.47;;
64842;SDS011;51310;52.198;5.422;2023-05-28T14:30:03;11.30;;;4.53;;
64842;SDS011;51310;52.198;5.422;2023-05-28T14:32:30;10.47;;;4.07;;
64842;SDS011;51310;52.198;5.422;2023-05-28T14:34:57;10.23;;;4.00;;
64842;SDS011;51310;52.198;5.422;2023-05-28T14:37:25;11.25;;;4.00;;